Time;durP1;ratioP1;P1;durP2;ratioP2;P2;SDS_P1;SDS_P2;PMS_P1;PMS_P2;Temp;Humidity;BMP_temperature;BMP_pressure;BME280_temperature;BME280_humidity;BME280_pressure;Samples;Min_cycle;Max_cycle;Signal;HPM_P1;HPM_P2
2020/12/09 00:00:48;;;;;;;29.23;18.40;;;;;;;1.11;100.00;151654.66;4970309;28;20448;-90
2020/12/09 00:03:23;;;;;;;31.77;18.80;;;;;;;1.09;100.00;151649.53;4994456;28;20429;-91
2020/12/09 00:05:59;;;;;;;33.40;19.70;;;;;;;1.10;100.00;151650.84;4990323;28;20488;-90
2020/12/09 00:08:34;;;;;;;35.30;19.60;;;;;;;1.11;100.00;151654.66;4997289;28;20428;-90
2020/12/09 00:11:10;;;;;;;31.70;19.50;;;;;;;1.11;100.00;151653.41;4996429;28;20872;-91
2020/12/09 00:13:46;;;;;;;30.37;19.10;;;;;;;1.12;100.00;151657.25;4996246;28;20475;-91
2020/12/09 00:16:22;;;;;;;32.57;19.70;;;;;;;1.10;100.00;151652.13;4998551;28;20452;-91
2020/12/09 00:18:57;;;;;;;29.50;18.40;;;;;;;1.10;100.00;151652.13;5000110;28;20542;-90
2020/12/09 00:21:34;;;;;;;33.50;18.97;;;;;;;1.08;100.00;151645.69;5017893;28;20435;-90
2020/12/09 00:24:09;;;;;;;30.80;18.53;;;;;;;1.09;100.00;151648.25;4999540;28;20441;-91
2020/12/09 00:26:44;;;;;;;26.43;16.83;;;;;;;1.09;100.00;151648.25;4999723;28;20802;-91
2020/12/09 00:29:20;;;;;;;35.63;19.60;;;;;;;1.10;100.00;151652.13;4999642;28;20425;-90
2020/12/09 00:31:56;;;;;;;30.37;19.00;;;;;;;1.14;100.00;151662.38;4999664;28;20845;-90
2020/12/09 00:34:31;;;;;;;31.97;18.87;;;;;;;1.14;100.00;151661.09;4999258;28;20471;-91
2020/12/09 00:37:06;;;;;;;33.50;19.97;;;;;;;1.14;100.00;151662.38;5017581;28;20448;-90
2020/12/09 00:39:42;;;;;;;29.67;19.10;;;;;;;1.14;100.00;151662.38;4999364;28;20478;-91
2020/12/09 00:42:17;;;;;;;31.97;18.27;;;;;;;1.19;100.00;151673.97;4999950;28;20443;-90
2020/12/09 00:44:54;;;;;;;35.93;19.13;;;;;;;1.15;100.00;151664.97;4984057;28;20444;-90
2020/12/09 00:47:30;;;;;;;35.23;19.83;;;;;;;1.13;100.00;151659.84;5000503;28;20424;-91
2020/12/09 00:53:09;;;;;;;32.27;19.30;;;;;;;1.13;100.00;151659.84;4984187;28;20530;-91
2020/12/09 00:55:44;;;;;;;30.30;18.43;;;;;;;1.14;100.00;151662.38;5000301;28;20452;-90
2020/12/09 00:58:20;;;;;;;31.70;20.40;;;;;;;1.12;100.00;151657.25;4999249;28;20939;-90
2020/12/09 01:00:56;;;;;;;37.70;20.87;;;;;;;1.13;100.00;151659.84;4999515;28;20440;-90
2020/12/09 01:03:36;;;;;;;30.70;19.33;;;;;;;1.14;100.00;151662.38;5016296;28;20428;-91
2020/12/09 01:06:11;;;;;;;31.47;19.33;;;;;;;1.14;100.00;151662.38;4999020;28;20483;-90
2020/12/09 01:08:47;;;;;;;32.07;19.60;;;;;;;1.17;100.00;151670.09;5016695;28;20771;-91
2020/12/09 01:11:22;;;;;;;29.73;19.63;;;;;;;1.16;100.00;151667.56;4999036;28;20450;-90
2020/12/09 01:13:58;;;;;;;31.87;18.20;;;;;;;1.18;100.00;151672.69;4999847;28;20440;-90
2020/12/09 01:16:33;;;;;;;31.00;18.67;;;;;;;1.16;100.00;151667.56;4984400;28;20533;-91
2020/12/09 01:19:09;;;;;;;37.40;21.13;;;;;;;1.17;100.00;151668.78;4999260;28;21095;-90
2020/12/09 01:21:44;;;;;;;33.87;20.03;;;;;;;1.15;100.00;151664.97;4998828;28;20439;-91
2020/12/09 01:24:20;;;;;;;31.20;20.10;;;;;;;1.14;100.00;151662.38;4998606;28;20431;-90
2020/12/09 01:26:55;;;;;;;32.20;18.83;;;;;;;1.14;100.00;151662.38;4998555;28;20439;-90
2020/12/09 01:29:30;;;;;;;32.23;19.97;;;;;;;1.14;100.00;151662.38;4998902;28;20431;-91
2020/12/09 01:32:05;;;;;;;35.07;20.33;;;;;;;1.14;100.00;151662.38;4984368;28;20439;-91
2020/12/09 01:34:41;;;;;;;36.87;21.10;;;;;;;1.16;100.00;151667.56;5010158;28;20448;-91
2020/12/09 01:37:17;;;;;;;31.00;18.50;;;;;;;1.18;100.00;151672.69;5009336;28;20443;-91
2020/12/09 01:39:52;;;;;;;32.30;20.57;;;;;;;1.17;100.00;151670.09;5005155;28;20483;-91
2020/12/09 01:42:28;;;;;;;33.90;20.27;;;;;;;1.18;100.00;151672.69;4998557;28;20442;-91
2020/12/09 01:45:03;;;;;;;37.10;20.50;;;;;;;1.18;100.00;151671.38;4998296;28;20574;-91
2020/12/09 01:47:43;;;;;;;42.30;21.00;;;;;;;1.16;100.00;151667.56;4999207;28;20873;-91
2020/12/09 01:50:19;;;;;;;40.93;20.97;;;;;;;1.16;100.00;151667.56;5015993;28;20432;-90
2020/12/09 01:52:55;;;;;;;35.97;21.30;;;;;;;1.18;100.00;151672.69;5015916;28;20416;-91
2020/12/09 01:55:30;;;;;;;32.93;19.60;;;;;;;1.19;100.00;151675.22;5014700;28;20850;-91
2020/12/09 01:58:05;;;;;;;34.40;21.00;;;;;;;1.20;100.00;151677.81;4998720;28;20439;-91
2020/12/09 02:00:41;;;;;;;35.47;21.33;;;;;;;1.20;100.00;151677.81;4998101;28;20831;-91
2020/12/09 02:03:17;;;;;;;35.77;21.63;;;;;;;1.20;100.00;151677.81;4998038;28;20441;-91
2020/12/09 02:05:53;;;;;;;31.20;19.70;;;;;;;1.19;100.00;151673.97;4999184;28;20464;-90
2020/12/09 02:08:29;;;;;;;38.17;21.60;;;;;;;1.18;100.00;151672.69;4998400;28;20436;-91
2020/12/09 02:11:05;;;;;;;34.77;21.57;;;;;;;1.19;100.00;151675.22;4997836;28;20443;-91
2020/12/09 02:13:44;;;;;;;33.50;20.50;;;;;;;1.15;100.00;151664.97;4997836;28;20514;-91
2020/12/09 02:16:19;;;;;;;35.40;21.30;;;;;;;1.16;100.00;151667.56;4998226;28;20440;-91
2020/12/09 02:18:55;;;;;;;36.10;21.37;;;;;;;1.20;100.00;151677.81;4998521;28;20447;-90
2020/12/09 02:21:34;;;;;;;35.53;20.97;;;;;;;1.24;100.00;151686.81;4998369;28;20937;-91
2020/12/09 02:24:09;;;;;;;31.60;20.77;;;;;;;1.23;100.00;151685.53;4982699;28;20439;-91
2020/12/09 02:26:46;;;;;;;35.57;21.10;;;;;;;1.23;100.00;151684.22;4999986;28;20450;-91
2020/12/09 02:29:21;;;;;;;33.27;20.87;;;;;;;1.27;100.00;151693.22;4998230;28;20524;-91
2020/12/09 02:31:57;;;;;;;31.67;21.17;;;;;;;1.27;100.00;151693.22;4997483;28;20472;-91
2020/12/09 02:34:32;;;;;;;43.50;23.47;;;;;;;1.26;100.00;151690.66;4999055;28;20423;-91
2020/12/09 02:37:09;;;;;;;36.10;21.43;;;;;;;1.26;100.00;151690.66;4997999;28;20421;-91
2020/12/09 02:39:44;;;;;;;33.80;19.67;;;;;;;1.27;100.00;151693.22;4997484;28;20472;-91
2020/12/09 02:42:19;;;;;;;34.23;21.40;;;;;;;1.25;100.00;151689.34;4997673;28;20891;-91
2020/12/09 02:44:54;;;;;;;29.10;19.93;;;;;;;1.26;100.00;151691.94;4997246;28;20448;-91
2020/12/09 02:47:30;;;;;;;39.27;22.20;;;;;;;1.22;100.00;151682.94;4997850;28;20443;-91
2020/12/09 02:50:06;;;;;;;32.30;19.97;;;;;;;1.23;100.00;151685.53;4982971;28;20443;-91
2020/12/09 02:52:42;;;;;;;42.93;23.50;;;;;;;1.26;100.00;151690.66;4984395;28;20424;-90
2020/12/09 02:55:18;;;;;;;34.60;22.40;;;;;;;1.28;100.00;151695.78;5016736;28;20527;-91
2020/12/09 02:57:54;;;;;;;31.27;20.20;;;;;;;1.28;100.00;151695.78;4998116;28;20447;-90
2020/12/09 03:00:29;;;;;;;33.63;20.47;;;;;;;1.27;100.00;151693.22;4997595;28;20566;-91
2020/12/09 03:11:11;;;;;;;34.80;20.50;;;;;;;1.21;100.00;151679.09;4988457;28;20462;-91
2020/12/09 03:13:47;;;;;;;33.10;20.83;;;;;;;1.21;100.00;151679.09;4977591;28;20429;-91
2020/12/09 03:16:22;;;;;;;34.33;20.30;;;;;;;1.19;100.00;151675.22;4997418;28;20456;-91
2020/12/09 03:18:59;;;;;;;33.63;19.13;;;;;;;1.20;100.00;151676.50;4982038;28;20432;-91
2020/12/09 03:21:34;;;;;;;33.57;19.57;;;;;;;1.17;100.00;151670.09;4997189;28;20421;-91
2020/12/09 03:24:10;;;;;;;32.57;19.97;;;;;;;1.15;100.00;151663.66;4996980;28;20435;-91
2020/12/09 03:26:46;;;;;;;31.43;18.73;;;;;;;1.17;100.00;151670.09;4982071;28;20452;-91
2020/12/09 03:29:21;;;;;;;29.03;18.77;;;;;;;1.20;100.00;151677.81;5014410;28;20413;-91
2020/12/09 03:31:56;;;;;;;33.53;20.53;;;;;;;1.22;100.00;151682.94;4997278;28;20448;-91
2020/12/09 03:34:32;;;;;;;33.57;19.37;;;;;;;1.25;100.00;151689.34;4996824;28;20436;-91
2020/12/09 03:37:07;;;;;;;31.53;19.67;;;;;;;1.26;100.00;151690.66;4996865;28;20915;-91
2020/12/09 03:39:42;;;;;;;31.70;21.63;;;;;;;1.28;100.00;151695.78;4997520;28;20479;-92
2020/12/09 03:42:18;;;;;;;39.90;21.00;;;;;;;1.28;100.00;151695.78;4996896;28;20441;-91
2020/12/09 03:44:54;;;;;;;33.50;21.20;;;;;;;1.27;100.00;151693.22;4996522;28;20441;-91
2020/12/09 03:47:29;;;;;;;33.10;21.30;;;;;;;1.28;100.00;151695.78;4997108;28;20445;-91
2020/12/09 03:50:07;;;;;;;35.70;21.67;;;;;;;1.28;100.00;151695.78;4997153;28;20833;-90
2020/12/09 03:52:43;;;;;;;36.37;21.37;;;;;;;1.29;100.00;151698.38;5000623;28;20444;-91
2020/12/09 03:55:18;;;;;;;33.90;21.63;;;;;;;1.30;100.00;151702.19;4995043;28;20444;-90
2020/12/09 03:57:57;;;;;;;34.43;21.43;;;;;;;1.29;100.00;151699.66;5000642;28;20444;-90
2020/12/09 04:00:32;;;;;;;39.53;20.90;;;;;;;1.29;100.00;151698.38;4985221;28;20475;-90
2020/12/09 04:03:07;;;;;;;32.27;20.90;;;;;;;1.28;100.00;151697.06;5000215;28;20483;-90
2020/12/09 04:05:43;;;;;;;33.00;18.90;;;;;;;1.28;100.00;151697.06;5000192;28;20443;-90
2020/12/09 04:08:18;;;;;;;32.77;20.23;;;;;;;1.29;100.00;151698.38;5000371;28;20473;-90
2020/12/09 04:10:53;;;;;;;27.43;18.57;;;;;;;1.28;100.00;151695.78;5017616;28;20460;-90
2020/12/09 04:13:30;;;;;;;32.50;21.07;;;;;;;1.27;100.00;151693.22;4991418;28;20792;-90
2020/12/09 04:16:05;;;;;;;32.77;21.03;;;;;;;1.27;100.00;151693.22;4997226;28;20421;-90
2020/12/09 04:18:40;;;;;;;32.77;19.93;;;;;;;1.28;100.00;151695.78;4994295;28;20447;-90
2020/12/09 04:21:16;;;;;;;32.20;21.10;;;;;;;1.28;100.00;151695.78;5012604;28;20468;-90
2020/12/09 04:23:51;;;;;;;35.53;20.40;;;;;;;1.28;100.00;151697.06;5007695;28;20421;-90
2020/12/09 04:26:26;;;;;;;31.60;20.00;;;;;;;1.27;100.00;151694.53;5002977;28;20433;-91
2020/12/09 04:29:02;;;;;;;34.90;20.90;;;;;;;1.24;100.00;151688.06;4985304;28;20440;-90
2020/12/09 04:31:38;;;;;;;32.87;20.37;;;;;;;1.27;100.00;151693.22;5000104;28;20448;-91
2020/12/09 04:34:13;;;;;;;37.50;20.60;;;;;;;1.25;100.00;151689.34;5017505;28;20444;-91
2020/12/09 04:36:50;;;;;;;33.97;19.80;;;;;;;1.26;100.00;151690.66;4992921;28;20445;-91
2020/12/09 04:39:26;;;;;;;28.23;18.40;;;;;;;1.26;100.00;151690.66;4985603;28;20464;-91
2020/12/09 04:42:01;;;;;;;29.00;18.17;;;;;;;1.25;100.00;151689.34;5000280;28;20539;-91
2020/12/09 04:44:37;;;;;;;34.83;21.00;;;;;;;1.26;100.00;151690.66;4984799;28;20421;-91
2020/12/09 04:47:18;;;;;;;33.63;19.10;;;;;;;1.28;100.00;151695.78;5017363;28;20438;-92
2020/12/09 04:50:04;;;;;;;30.27;19.97;;;;;;;1.28;100.00;151697.06;5000177;28;20437;-91
2020/12/09 04:52:45;;;;;;;30.70;19.43;;;;;;;1.29;100.00;151698.38;5017763;28;20444;-91
2020/12/09 04:55:20;;;;;;;35.93;19.13;;;;;;;1.28;100.00;151695.78;5017213;28;20448;-91
2020/12/09 04:58:17;;;;;;;28.77;18.40;;;;;;;1.30;100.00;151700.94;5017227;28;20441;-92
2020/12/09 05:01:03;;;;;;;37.03;20.87;;;;;;;1.28;100.00;151695.78;4998617;28;20468;-92
2020/12/09 05:03:43;;;;;;;34.93;20.37;;;;;;;1.30;100.00;151700.94;4997226;28;20535;-91
2020/12/09 05:06:20;;;;;;;28.93;19.70;;;;;;;1.30;100.00;151700.94;4980479;28;20878;-91
2020/12/09 05:08:56;;;;;;;28.47;17.57;;;;;;;1.30;100.00;151700.94;4998636;28;20434;-91
2020/12/09 05:11:32;;;;;;;27.57;18.77;;;;;;;1.30;100.00;151700.94;4984795;28;20469;-91
2020/12/09 05:14:08;;;;;;;29.50;18.27;;;;;;;1.32;100.00;151707.38;4980729;28;20465;-92
2020/12/09 05:16:55;;;;;;;31.27;20.73;;;;;;;1.34;100.00;151711.19;4980160;28;20536;-90
2020/12/09 05:19:31;;;;;;;35.00;20.27;;;;;;;1.33;100.00;151708.63;5001426;28;20468;-90
2020/12/09 05:22:11;;;;;;;31.70;19.73;;;;;;;1.33;100.00;151709.91;5007416;28;20843;-89
2020/12/09 05:24:46;;;;;;;30.50;18.77;;;;;;;1.35;100.00;151713.78;4999843;28;20494;-91
2020/12/09 05:27:22;;;;;;;29.17;17.10;;;;;;;1.34;100.00;151711.19;4998484;28;20547;-90
2020/12/09 05:29:57;;;;;;;30.40;19.17;;;;;;;1.34;100.00;151711.19;4979156;28;20469;-91
2020/12/09 05:32:53;;;;;;;27.47;17.83;;;;;;;1.36;100.00;151716.31;4984371;28;20927;-92
2020/12/09 05:35:28;;;;;;;30.73;18.47;;;;;;;1.37;100.00;151718.91;4998042;28;20834;-91
2020/12/09 05:38:12;;;;;;;29.33;19.30;;;;;;;1.34;100.00;151711.19;5016018;28;20413;-91
2020/12/09 05:40:48;;;;;;;26.53;17.93;;;;;;;1.34;100.00;151712.50;5016032;28;20462;-90
2020/12/09 05:43:24;;;;;;;31.00;18.20;;;;;;;1.35;100.00;151713.78;4997879;28;20847;-90
2020/12/09 05:46:06;;;;;;;26.53;18.27;;;;;;;1.35;100.00;151715.03;5015663;28;20523;-92
2020/12/09 05:48:51;;;;;;;27.57;18.00;;;;;;;1.32;100.00;151707.38;5016314;28;20489;-93
2020/12/09 05:51:27;;;;;;;27.50;17.90;;;;;;;1.31;100.00;151703.50;5016085;28;20494;-92
2020/12/09 05:54:10;;;;;;;29.87;17.80;;;;;;;1.30;100.00;151700.94;4998858;28;20440;-93
2020/12/09 05:56:45;;;;;;;28.00;16.50;;;;;;;1.33;100.00;151709.91;4998580;28;20527;-92
2020/12/09 05:59:31;;;;;;;26.10;16.70;;;;;;;1.34;100.00;151711.19;4999037;28;20471;-92
2020/12/09 06:02:11;;;;;;;26.80;15.80;;;;;;;1.33;100.00;151708.63;4999171;28;20428;-92
2020/12/09 06:04:53;;;;;;;31.30;18.10;;;;;;;1.33;100.00;151709.91;4985121;28;20448;-90
2020/12/09 06:07:29;;;;;;;21.60;15.30;;;;;;;1.33;100.00;151708.63;4998446;28;20452;-91
2020/12/09 06:10:13;;;;;;;22.63;15.07;;;;;;;1.34;100.00;151711.19;4998172;28;20531;-90
2020/12/09 06:12:53;;;;;;;22.70;15.43;;;;;;;1.35;100.00;151713.78;4976176;28;20535;-92
2020/12/09 06:15:30;;;;;;;25.13;15.60;;;;;;;1.34;100.00;151712.50;4998813;28;20461;-91
2020/12/09 06:18:09;;;;;;;27.10;16.50;;;;;;;1.32;100.00;151707.38;4999022;28;20440;-93
2020/12/09 06:20:46;;;;;;;26.90;16.30;;;;;;;1.36;100.00;151716.31;4998245;28;20962;-92
2020/12/09 06:23:21;;;;;;;27.10;17.60;;;;;;;1.34;100.00;151712.50;5015592;28;20413;-93
2020/12/09 06:25:59;;;;;;;22.80;14.90;;;;;;;1.38;100.00;151721.50;4994760;28;20452;-91
2020/12/09 06:28:36;;;;;;;24.03;16.37;;;;;;;1.39;100.00;151724.03;5016222;28;20440;-90
2020/12/09 06:31:13;;;;;;;23.20;14.87;;;;;;;1.37;100.00;151718.91;5003037;28;20998;-91
2020/12/09 06:33:51;;;;;;;26.17;16.40;;;;;;;1.37;100.00;151718.91;4999752;28;20547;-92
2020/12/09 06:36:28;;;;;;;24.67;15.87;;;;;;;1.37;100.00;151718.91;4999456;28;20459;-90
2020/12/09 06:39:12;;;;;;;24.53;17.07;;;;;;;1.36;100.00;151717.63;5004964;28;20842;-91
2020/12/09 06:42:10;;;;;;;21.90;15.67;;;;;;;1.34;100.00;151711.19;4997164;28;20529;-90
2020/12/09 06:44:50;;;;;;;22.17;15.37;;;;;;;1.36;100.00;151716.31;4997876;28;20444;-93
2020/12/09 06:47:25;;;;;;;25.23;16.30;;;;;;;1.34;100.00;151712.50;4983458;28;20444;-93
2020/12/09 06:50:01;;;;;;;24.87;16.33;;;;;;;1.38;100.00;151721.50;4983920;28;20433;-90
2020/12/09 06:55:30;;;;;;;24.00;16.33;;;;;;;1.38;100.00;151722.75;4999881;28;20433;-91
2020/12/09 06:58:22;;;;;;;34.23;17.70;;;;;;;1.35;100.00;151715.03;4998265;28;20528;-91
2020/12/09 07:00:58;;;;;;;28.37;17.63;;;;;;;1.38;100.00;151721.50;4999204;28;20453;-91
2020/12/09 07:03:37;;;;;;;25.53;16.20;;;;;;;1.35;100.00;151715.03;5028263;28;20416;-91
2020/12/09 07:06:34;;;;;;;25.03;17.63;;;;;;;1.35;100.00;151713.78;5032782;28;20448;-91
2020/12/09 07:09:13;;;;;;;23.67;15.37;;;;;;;1.33;100.00;151709.91;5000564;28;20433;-91
2020/12/09 07:11:55;;;;;;;24.53;17.07;;;;;;;1.35;100.00;151713.78;4984264;28;20508;-90
2020/12/09 07:14:30;;;;;;;22.93;16.57;;;;;;;1.37;100.00;151718.91;4997146;28;20852;-90
2020/12/09 07:17:12;;;;;;;24.17;16.60;;;;;;;1.40;100.00;151726.63;4997687;28;20437;-90
2020/12/09 07:19:47;;;;;;;26.33;16.03;;;;;;;1.39;100.00;151725.34;5014796;28;20464;-90
2020/12/09 07:22:23;;;;;;;27.40;17.17;;;;;;;1.42;100.00;151731.75;4997092;28;20437;-90
2020/12/09 07:25:00;;;;;;;29.97;17.90;;;;;;;1.44;100.00;151736.88;4997588;28;20933;-90
2020/12/09 07:27:37;;;;;;;26.53;17.40;;;;;;;1.43;100.00;151734.34;5002891;28;20432;-90
2020/12/09 07:30:18;;;;;;;24.13;15.50;;;;;;;1.45;100.00;151739.47;5019297;28;20428;-91
2020/12/09 07:32:54;;;;;;;25.07;17.23;;;;;;;1.45;100.00;151739.47;5002210;28;20432;-91
2020/12/09 07:35:30;;;;;;;27.73;17.60;;;;;;;1.45;100.00;151739.47;5001228;28;20524;-91
2020/12/09 07:38:06;;;;;;;25.67;17.33;;;;;;;1.44;100.00;151738.19;5002604;28;20431;-92
2020/12/09 07:40:42;;;;;;;25.80;17.13;;;;;;;1.46;100.00;151742.00;5017534;28;20472;-93
2020/12/09 07:43:18;;;;;;;26.20;16.97;;;;;;;1.46;100.00;151742.00;5003092;28;20436;-92
2020/12/09 07:46:00;;;;;;;23.40;17.57;;;;;;;1.45;100.00;151739.47;5000665;28;20870;-91
2020/12/09 07:48:36;;;;;;;23.33;16.13;;;;;;;1.47;100.00;151744.59;5018625;28;20856;-91
2020/12/09 07:51:12;;;;;;;29.00;17.50;;;;;;;1.46;100.00;151742.00;5001173;28;20437;-92
2020/12/09 07:53:48;;;;;;;26.60;17.60;;;;;;;1.48;100.00;151747.19;5017120;28;20433;-92
2020/12/09 07:56:24;;;;;;;27.40;17.40;;;;;;;1.50;100.00;151752.31;4985985;28;20446;-91
2020/12/09 07:58:59;;;;;;;26.03;18.80;;;;;;;1.48;100.00;151747.19;5017987;28;20437;-92
2020/12/09 08:01:35;;;;;;;28.47;18.80;;;;;;;1.51;100.00;151754.91;5000121;28;20478;-91
2020/12/09 08:04:11;;;;;;;28.03;18.37;;;;;;;1.51;100.00;151756.16;4985097;28;20439;-91
2020/12/09 08:06:48;;;;;;;30.23;19.17;;;;;;;1.52;100.00;151757.44;5000495;28;20449;-92
2020/12/09 08:09:24;;;;;;;27.70;18.60;;;;;;;1.49;100.00;151749.72;4999998;28;20448;-91
2020/12/09 08:12:00;;;;;;;30.50;17.60;;;;;;;1.50;100.00;151752.31;4984805;28;20861;-91
2020/12/09 08:14:36;;;;;;;28.57;18.33;;;;;;;1.50;100.00;151752.31;4999647;28;20476;-92
2020/12/09 08:17:26;;;;;;;33.23;18.10;;;;;;;1.54;100.00;151762.56;5000589;28;20440;-91
2020/12/09 08:20:05;;;;;;;28.73;17.17;;;;;;;1.53;100.00;151760.03;5017926;28;20955;-91
2020/12/09 08:22:53;;;;;;;32.80;18.50;;;;;;;1.52;100.00;151758.75;5018277;28;20409;-91
2020/12/09 08:25:30;;;;;;;27.60;17.90;;;;;;;1.53;100.00;151760.03;5002041;28;20446;-91
2020/12/09 08:28:07;;;;;;;27.13;17.40;;;;;;;1.53;100.00;151760.03;5000018;28;20449;-92
2020/12/09 08:30:42;;;;;;;29.10;17.97;;;;;;;1.55;100.00;151765.16;4982364;28;20454;-91
2020/12/09 08:33:23;;;;;;;28.90;18.90;;;;;;;1.54;100.00;151763.88;4980114;28;20499;-91
2020/12/09 08:35:59;;;;;;;25.63;17.50;;;;;;;1.54;100.00;151762.56;4965610;28;20931;-91
2020/12/09 08:38:38;;;;;;;25.40;17.37;;;;;;;1.56;100.00;151767.75;4977858;28;20449;-91
2020/12/09 08:41:15;;;;;;;30.30;18.77;;;;;;;1.57;100.00;151770.28;4999972;28;20472;-91
2020/12/09 08:43:55;;;;;;;27.90;18.20;;;;;;;1.60;100.00;151778.00;4999644;28;20535;-91
2020/12/09 08:46:33;;;;;;;31.07;17.97;;;;;;;1.61;100.00;151780.59;5000155;28;20441;-91
2020/12/09 08:49:09;;;;;;;29.70;18.20;;;;;;;1.58;100.00;151772.88;4999302;28;20487;-91
2020/12/09 08:51:44;;;;;;;28.90;17.30;;;;;;;1.60;100.00;151779.31;4999099;28;20440;-91
2020/12/09 08:54:19;;;;;;;28.93;16.53;;;;;;;1.63;100.00;151785.72;4998851;28;20449;-91
2020/12/09 08:56:55;;;;;;;29.93;18.53;;;;;;;1.60;100.00;151778.00;5016603;28;20858;-91
2020/12/09 08:59:31;;;;;;;28.57;18.43;;;;;;;1.60;100.00;151778.00;4999398;28;21002;-91
2020/12/09 09:02:07;;;;;;;30.50;19.50;;;;;;;1.57;100.00;151771.59;4984145;28;20436;-90
2020/12/09 09:04:42;;;;;;;29.03;18.80;;;;;;;1.54;100.00;151762.56;4998802;28;20873;-90
2020/12/09 09:07:17;;;;;;;27.10;18.40;;;;;;;1.53;100.00;151761.34;4997991;28;20522;-90
2020/12/09 09:09:52;;;;;;;30.43;18.83;;;;;;;1.54;100.00;151763.88;4984413;28;20447;-90
2020/12/09 09:12:28;;;;;;;32.87;20.57;;;;;;;1.55;100.00;151765.16;4992133;28;20503;-91
2020/12/09 09:15:04;;;;;;;34.40;19.67;;;;;;;1.54;100.00;151762.56;4986310;28;20445;-90
2020/12/09 09:17:39;;;;;;;29.60;18.23;;;;;;;1.55;100.00;151765.16;4993995;28;20448;-90
2020/12/09 09:20:14;;;;;;;33.20;19.80;;;;;;;1.56;100.00;151767.75;4998873;28;20511;-90
2020/12/09 09:22:50;;;;;;;32.20;20.40;;;;;;;1.54;100.00;151762.56;4982761;28;20440;-90
2020/12/09 09:25:25;;;;;;;34.40;21.60;;;;;;;1.53;100.00;151760.03;4998381;28;21037;-90
2020/12/09 09:28:01;;;;;;;33.17;21.50;;;;;;;1.52;100.00;151757.44;5015876;28;20899;-90
2020/12/09 09:30:37;;;;;;;31.47;19.90;;;;;;;1.58;100.00;151772.88;4978763;28;20439;-90
2020/12/09 09:33:13;;;;;;;34.17;21.10;;;;;;;1.58;100.00;151772.88;4998053;28;20460;-90
2020/12/09 09:35:48;;;;;;;32.00;20.60;;;;;;;1.57;100.00;151770.28;4998334;28;20910;-90
2020/12/09 09:38:24;;;;;;;34.20;21.00;;;;;;;1.55;100.00;151765.16;5006808;28;20935;-90
2020/12/09 09:40:59;;;;;;;37.00;21.43;;;;;;;1.55;100.00;151766.47;4978668;28;20469;-90
2020/12/09 09:43:34;;;;;;;38.67;21.23;;;;;;;1.56;100.00;151767.75;4993613;28;20456;-90
2020/12/09 09:46:10;;;;;;;32.67;20.60;;;;;;;1.58;100.00;151772.88;4999680;28;20452;-90
2020/12/09 09:48:46;;;;;;;34.20;21.97;;;;;;;1.55;100.00;151765.16;5009694;28;20458;-89
2020/12/09 09:51:21;;;;;;;37.67;22.20;;;;;;;1.57;100.00;151770.28;5029748;28;20428;-90
2020/12/09 09:53:57;;;;;;;38.63;23.47;;;;;;;1.59;100.00;151776.72;4993249;28;20443;-90
2020/12/09 09:56:32;;;;;;;37.30;21.83;;;;;;;1.61;100.00;151780.59;4998922;28;20523;-90
2020/12/09 09:59:07;;;;;;;40.43;21.40;;;;;;;1.60;100.00;151778.00;4996258;28;20807;-90
2020/12/09 10:01:43;;;;;;;32.83;22.00;;;;;;;1.60;100.00;151779.31;4997145;28;20838;-90
2020/12/09 10:04:19;;;;;;;37.50;19.90;;;;;;;1.59;100.00;151775.47;4982537;28;20448;-90
2020/12/09 10:06:54;;;;;;;34.83;21.60;;;;;;;1.55;100.00;151765.16;4996191;28;20933;-90
2020/12/09 10:09:30;;;;;;;43.60;22.50;;;;;;;1.57;100.00;151771.59;4997586;28;20447;-90
2020/12/09 10:12:05;;;;;;;39.93;23.13;;;;;;;1.59;100.00;151775.47;4997028;28;20561;-90
2020/12/09 10:14:40;;;;;;;41.37;24.53;;;;;;;1.61;100.00;151780.59;4997115;28;20534;-90
2020/12/09 10:17:16;;;;;;;35.63;20.97;;;;;;;1.62;100.00;151783.13;4992097;28;20440;-90
2020/12/09 10:19:51;;;;;;;36.07;21.40;;;;;;;1.62;100.00;151783.13;4997531;28;20451;-90
2020/12/09 10:22:27;;;;;;;36.67;21.60;;;;;;;1.59;100.00;151776.72;4996975;28;20535;-90
2020/12/09 10:25:03;;;;;;;34.83;23.10;;;;;;;1.60;100.00;151778.00;4997443;28;20445;-90
2020/12/09 10:27:38;;;;;;;39.80;21.60;;;;;;;1.60;100.00;151778.00;5013688;28;20437;-89
2020/12/09 10:30:14;;;;;;;30.87;20.30;;;;;;;1.64;100.00;151788.31;5015073;28;20440;-90
2020/12/09 10:32:50;;;;;;;47.03;23.17;;;;;;;1.64;100.00;151788.31;4981508;28;20535;-90
2020/12/09 10:35:25;;;;;;;34.00;20.33;;;;;;;1.64;100.00;151789.56;4996442;28;20432;-90
2020/12/09 10:38:01;;;;;;;39.07;22.87;;;;;;;1.66;100.00;151793.44;4996905;28;20432;-89
2020/12/09 10:40:36;;;;;;;37.00;23.40;;;;;;;1.67;100.00;151795.97;5014430;28;20522;-89
2020/12/09 10:43:12;;;;;;;35.73;23.00;;;;;;;1.69;100.00;151801.16;4996316;28;20461;-89
2020/12/09 10:45:47;;;;;;;33.13;20.37;;;;;;;1.68;100.00;151798.56;4993452;28;20536;-90
2020/12/09 10:48:23;;;;;;;36.73;22.37;;;;;;;1.70;100.00;151805.00;4991401;28;20545;-90
2020/12/09 10:50:58;;;;;;;30.43;18.57;;;;;;;1.70;100.00;151805.00;4994990;28;20549;-89
2020/12/09 10:53:34;;;;;;;33.67;22.90;;;;;;;1.72;100.00;151808.88;4996331;28;20539;-90
2020/12/09 10:56:09;;;;;;;28.93;18.43;;;;;;;1.74;100.00;151814.00;4996139;28;20842;-90
2020/12/09 10:58:44;;;;;;;33.93;19.87;;;;;;;1.75;100.00;151816.56;5014556;28;20910;-90
2020/12/09 11:01:20;;;;;;;31.60;19.90;;;;;;;1.77;100.00;151821.72;4996013;28;20469;-90
2020/12/09 11:03:57;;;;;;;30.50;19.93;;;;;;;1.76;100.00;151820.44;4995609;28;20444;-89
2020/12/09 11:06:34;;;;;;;33.53;21.30;;;;;;;1.76;100.00;151819.13;4995970;28;20880;-89
2020/12/09 11:09:09;;;;;;;38.13;20.97;;;;;;;1.74;100.00;151814.00;4996208;28;20456;-88
2020/12/09 11:11:46;;;;;;;33.63;20.53;;;;;;;1.76;100.00;151819.13;5013599;28;20804;-89
2020/12/09 11:14:21;;;;;;;30.63;19.23;;;;;;;1.76;100.00;151819.13;5013697;28;20460;-89
2020/12/09 11:16:56;;;;;;;32.10;20.90;;;;;;;1.76;100.00;151819.13;4992434;28;20539;-89
2020/12/09 11:19:33;;;;;;;33.97;20.47;;;;;;;1.76;100.00;151819.13;4996299;28;20444;-88
2020/12/09 11:22:08;;;;;;;32.40;21.40;;;;;;;1.78;100.00;151824.25;5013932;28;20457;-89
2020/12/09 11:24:44;;;;;;;37.93;19.77;;;;;;;1.73;100.00;151811.41;4991994;28;20460;-90
2020/12/09 11:27:20;;;;;;;34.83;20.17;;;;;;;1.74;100.00;151815.31;4996694;28;20444;-90
2020/12/09 11:29:55;;;;;;;31.40;20.53;;;;;;;1.75;100.00;151816.56;4995604;28;20536;-89
2020/12/09 11:32:32;;;;;;;41.10;20.90;;;;;;;1.72;100.00;151808.88;4995462;28;20940;-90
2020/12/09 11:35:09;;;;;;;32.43;20.23;;;;;;;1.73;100.00;151811.41;5013915;28;20448;-89
2020/12/09 11:37:45;;;;;;;36.77;21.90;;;;;;;1.71;100.00;151806.28;4995928;28;20932;-89
2020/12/09 11:40:23;;;;;;;35.07;20.17;;;;;;;1.72;100.00;151810.13;4997618;28;20494;-90
2020/12/09 11:42:58;;;;;;;32.60;20.57;;;;;;;1.74;100.00;151814.00;4995895;28;20842;-90
2020/12/09 11:45:35;;;;;;;39.00;24.10;;;;;;;1.74;100.00;151815.31;4980785;28;20479;-89
2020/12/09 11:48:12;;;;;;;34.60;21.60;;;;;;;1.74;100.00;151814.00;4995854;28;20439;-90
2020/12/09 11:50:48;;;;;;;41.40;22.00;;;;;;;1.75;100.00;151816.56;4995679;28;20448;-89
2020/12/09 11:53:24;;;;;;;38.00;23.10;;;;;;;1.70;100.00;151803.69;4995706;28;20444;-90
2020/12/09 11:55:59;;;;;;;41.97;23.10;;;;;;;1.65;100.00;151790.84;4976899;28;20440;-89
2020/12/09 11:58:34;;;;;;;38.77;22.30;;;;;;;1.69;100.00;151802.47;4962070;28;20437;-89
2020/12/09 12:01:09;;;;;;;36.73;20.40;;;;;;;1.69;100.00;151802.47;4995878;28;20504;-90
2020/12/09 12:03:46;;;;;;;38.17;22.03;;;;;;;1.71;100.00;151806.28;5013189;28;20452;-90
2020/12/09 12:06:25;;;;;;;34.73;21.80;;;;;;;1.73;100.00;151811.41;4995920;28;20468;-90